Time;durP1;ratioP1;P1;durP2;ratioP2;P2;SDS_P1;SDS_P2;PMS_P1;PMS_P2;Temp;Humidity;BMP_temperature;BMP_pressure;BME280_temperature;BME280_humidity;BME280_pressure;Samples;Min_cycle;Max_cycle;Signal;HPM_P1;HPM_P2
2022/10/12 00:02:16;;;;;;;63.78;56.85;;;22.80;62.90;;;;;;4795262;58;21011;-26
2022/10/12 00:07:17;;;;;;;65.87;58.65;;;22.80;63.00;;;;;;4824578;54;20984;-28
2022/10/12 00:12:18;;;;;;;62.40;55.58;;;22.80;63.00;;;;;;4804479;54;20988;-27
2022/10/12 00:17:20;;;;;;;60.15;53.58;;;22.80;62.90;;;;;;4794156;58;21007;-29
2022/10/12 00:22:21;;;;;;;62.80;55.97;;;22.80;62.90;;;;;;4794730;58;21115;-32
2022/10/12 00:27:22;;;;;;;62.08;55.33;;;22.80;62.90;;;;;;4823095;54;21071;-35
2022/10/12 00:32:23;;;;;;;63.45;56.50;;;22.80;63.00;;;;;;4795402;58;21067;-28
2022/10/12 00:37:23;;;;;;;63.00;56.30;;;22.80;62.90;;;;;;4834987;54;21513;-26
2022/10/12 00:42:25;;;;;;;61.80;55.00;;;22.90;62.90;;;;;;4822159;54;21474;-28
2022/10/12 00:47:32;;;;;;;58.63;52.30;;;22.80;63.40;;;;;;4839395;54;21019;-27
2022/10/12 00:53:41;;;;;;;63.28;56.53;;;22.80;62.90;;;;;;4860126;54;20991;-31
2022/10/12 00:58:42;;;;;;;60.00;53.45;;;22.80;62.80;;;;;;4796271;54;21011;-30
2022/10/12 01:03:43;;;;;;;59.88;53.38;;;22.80;62.90;;;;;;4799504;54;21032;-36
2022/10/12 01:08:45;;;;;;;60.63;54.08;;;22.80;62.80;;;;;;4795585;58;21134;-31
2022/10/12 01:13:46;;;;;;;58.95;52.75;;;22.90;62.90;;;;;;4845923;54;21513;-31
2022/10/12 01:18:57;;;;;;;60.55;53.97;;;22.80;62.90;;;;;;4795426;55;21075;-28
2022/10/12 01:24:30;;;;;;;60.47;54.00;;;22.80;62.80;;;;;;4808675;54;21071;-29
2022/10/12 01:30:06;;;;;;;60.55;53.95;;;22.80;62.80;;;;;;4828944;54;20999;-34
2022/10/12 01:42:02;;;;;;;60.53;54.03;;;22.80;62.70;;;;;;4802353;54;21071;-36
2022/10/12 01:47:03;;;;;;;61.25;54.42;;;22.80;62.80;;;;;;4799082;54;21040;-33
2022/10/12 01:52:28;;;;;;;60.35;53.92;;;22.80;62.80;;;;;;4805515;54;21007;-31
2022/10/12 02:00:24;;;;;;;57.70;51.53;;;22.80;62.80;;;;;;4797979;54;21103;-34
2022/10/12 02:06:07;;;;;;;58.22;51.70;;;22.80;62.80;;;;;;4811463;54;21084;-28
2022/10/12 02:11:16;;;;;;;57.62;51.53;;;22.80;62.70;;;;;;4799662;54;21063;-34
2022/10/12 02:16:21;;;;;;;56.22;49.90;;;22.80;62.70;;;;;;4794411;54;21087;-30
2022/10/12 02:21:28;;;;;;;56.83;50.63;;;22.80;62.80;;;;;;4796158;58;20980;-29
2022/10/12 02:26:31;;;;;;;55.97;49.95;;;22.80;62.80;;;;;;4795830;55;21000;-33
2022/10/12 02:31:57;;;;;;;55.75;49.92;;;22.80;62.80;;;;;;4833616;54;20996;-29
2022/10/12 02:37:27;;;;;;;55.92;50.03;;;22.80;62.70;;;;;;4796386;54;21490;-30
2022/10/12 02:42:38;;;;;;;55.58;49.70;;;22.80;62.70;;;;;;4826945;54;20980;-30
2022/10/12 02:47:44;;;;;;;54.58;48.78;;;22.60;62.60;;;;;;4853462;54;21030;-28
2022/10/12 02:52:47;;;;;;;55.60;49.73;;;22.80;62.70;;;;;;4820303;54;21004;-34
2022/10/12 02:57:48;;;;;;;55.45;49.67;;;22.80;62.70;;;;;;4822719;54;21490;-27
2022/10/12 03:02:49;;;;;;;53.58;47.80;;;22.80;62.80;;;;;;4828166;54;21130;-32
2022/10/12 03:07:49;;;;;;;52.90;47.30;;;22.80;62.70;;;;;;4830971;54;21023;-34
2022/10/12 03:12:50;;;;;;;55.33;49.45;;;22.80;62.70;;;;;;4803420;54;21031;-28
2022/10/12 03:17:51;;;;;;;53.35;47.83;;;22.80;62.70;;;;;;4804133;54;21596;-35
2022/10/12 03:22:52;;;;;;;54.47;48.67;;;22.80;62.70;;;;;;4827868;54;21055;-31
2022/10/12 03:27:53;;;;;;;54.58;48.85;;;22.80;62.60;;;;;;4794987;58;21525;-26
2022/10/12 03:32:53;;;;;;;54.65;48.75;;;22.80;62.70;;;;;;4875139;54;21055;-31
2022/10/12 03:37:54;;;;;;;55.12;49.15;;;22.80;63.00;;;;;;4847810;54;21044;-33
2022/10/12 03:42:55;;;;;;;54.35;48.63;;;22.80;62.70;;;;;;4795185;58;21072;-35
2022/10/12 03:47:56;;;;;;;53.55;47.70;;;22.80;62.70;;;;;;4833908;54;21574;-27
2022/10/12 03:52:57;;;;;;;51.83;46.40;;;22.80;62.70;;;;;;4834380;54;21055;-36
2022/10/12 03:58:00;;;;;;;53.38;47.40;;;22.80;62.70;;;;;;4821908;54;21059;-37
2022/10/12 04:03:03;;;;;;;51.25;45.70;;;22.80;62.70;;;;;;4832452;54;21052;-32
2022/10/12 04:08:04;;;;;;;51.92;46.33;;;22.80;62.70;;;;;;4795361;58;21530;-31
2022/10/12 04:13:05;;;;;;;53.05;47.53;;;22.70;62.70;;;;;;4834301;54;21490;-30
2022/10/12 04:18:06;;;;;;;53.05;47.38;;;22.80;62.80;;;;;;4801235;54;21028;-33
2022/10/12 04:23:07;;;;;;;51.85;46.30;;;22.70;62.80;;;;;;4797542;54;20988;-32
2022/10/12 04:28:08;;;;;;;52.53;47.00;;;22.80;62.80;;;;;;4802774;54;21572;-26
2022/10/12 04:33:08;;;;;;;53.53;47.70;;;22.70;62.90;;;;;;4795637;58;21047;-26
2022/10/12 04:38:09;;;;;;;51.42;46.15;;;22.80;62.90;;;;;;4805210;54;21047;-34
2022/10/12 04:43:10;;;;;;;52.67;47.10;;;22.80;62.90;;;;;;4795351;54;21514;-31
2022/10/12 04:48:11;;;;;;;51.78;46.28;;;22.80;62.90;;;;;;4795503;55;21031;-33
2022/10/12 04:53:12;;;;;;;52.45;46.95;;;22.70;62.80;;;;;;4813722;54;21027;-30
2022/10/12 04:58:13;;;;;;;51.60;45.45;;;22.70;62.90;;;;;;4800904;54;21015;-32
2022/10/12 05:03:14;;;;;;;50.67;45.25;;;22.70;62.80;;;;;;4801724;54;20996;-27
2022/10/12 05:08:15;;;;;;;50.63;45.12;;;22.70;62.80;;;;;;4815118;54;21625;-37
2022/10/12 05:13:16;;;;;;;51.10;45.67;;;22.80;62.90;;;;;;4848536;54;21076;-34
2022/10/12 05:18:16;;;;;;;52.30;46.70;;;22.80;62.80;;;;;;4797395;54;21008;-30
2022/10/12 05:23:17;;;;;;;50.92;45.53;;;22.70;62.90;;;;;;4841416;54;21494;-34
2022/10/12 05:28:18;;;;;;;51.05;45.70;;;22.70;62.80;;;;;;4825225;54;20988;-29
2022/10/12 05:33:19;;;;;;;50.15;44.95;;;22.80;62.80;;;;;;4827414;54;21577;-28
2022/10/12 05:38:20;;;;;;;50.75;45.45;;;22.70;62.80;;;;;;4829109;54;21593;-35
2022/10/12 05:43:21;;;;;;;50.20;44.95;;;22.70;62.70;;;;;;4857262;54;21000;-32
2022/10/12 05:48:21;;;;;;;49.35;44.05;;;22.70;62.70;;;;;;4794917;58;21494;-30
2022/10/12 05:53:22;;;;;;;50.12;44.72;;;22.70;62.70;;;;;;4811887;54;20996;-35
2022/10/12 05:58:25;;;;;;;49.17;44.10;;;22.70;62.70;;;;;;4818466;54;21454;-35
2022/10/12 06:03:26;;;;;;;50.50;45.20;;;22.80;62.80;;;;;;4801024;54;21047;-31
2022/10/12 06:08:29;;;;;;;50.55;45.25;;;22.70;62.70;;;;;;4795864;54;21035;-27
2022/10/12 06:13:31;;;;;;;50.92;45.53;;;22.70;62.70;;;;;;4795174;55;22020;-27
2022/10/12 06:18:32;;;;;;;49.97;44.70;;;22.80;62.70;;;;;;4795048;58;21051;-30
2022/10/12 06:23:32;;;;;;;47.85;42.75;;;22.70;62.70;;;;;;4798182;54;21043;-29
2022/10/12 06:28:33;;;;;;;49.47;44.22;;;22.70;62.70;;;;;;4826057;54;20999;-30
2022/10/12 06:33:34;;;;;;;50.53;45.22;;;22.70;62.60;;;;;;4871342;54;21023;-30
2022/10/12 06:38:35;;;;;;;50.25;44.90;;;22.70;62.60;;;;;;4826676;54;21518;-30
2022/10/12 06:43:36;;;;;;;51.08;45.50;;;22.80;62.70;;;;;;4803228;54;21005;-31
2022/10/12 06:48:37;;;;;;;48.92;43.65;;;22.70;62.60;;;;;;4795134;54;21027;-29
2022/10/12 06:53:38;;;;;;;52.00;46.50;;;22.70;62.60;;;;;;4802008;54;21553;-29
2022/10/12 06:58:39;;;;;;;52.15;46.47;;;22.80;62.70;;;;;;4795240;58;21000;-35
2022/10/12 07:03:40;;;;;;;51.88;46.35;;;22.80;62.60;;;;;;4821869;54;21012;-36
2022/10/12 07:08:41;;;;;;;52.97;47.17;;;22.80;62.60;;;;;;4793988;58;21635;-35
2022/10/12 07:13:42;;;;;;;52.67;47.05;;;22.80;62.60;;;;;;4805235;54;21510;-27
2022/10/12 07:18:42;;;;;;;50.00;44.05;;;22.90;62.80;;;;;;4794807;55;21012;-26
2022/10/12 07:23:43;;;;;;;52.33;46.75;;;22.90;62.70;;;;;;4804387;54;21137;-31
2022/10/12 07:28:44;;;;;;;52.67;47.00;;;22.90;62.80;;;;;;4803826;54;21032;-28
2022/10/12 07:33:45;;;;;;;55.30;49.40;;;23.00;62.90;;;;;;4804875;54;21016;-37
2022/10/12 07:38:47;;;;;;;53.25;47.13;;;23.00;62.80;;;;;;4814755;54;21088;-38
2022/10/12 07:43:55;;;;;;;52.30;46.63;;;23.00;63.00;;;;;;4796052;58;21958;-28
2022/10/12 07:48:56;;;;;;;53.28;47.53;;;23.10;63.20;;;;;;4795359;58;21541;-27
2022/10/12 07:53:59;;;;;;;54.38;48.35;;;23.10;63.20;;;;;;4794256;58;21580;-32
2022/10/12 07:59:00;;;;;;;52.10;46.53;;;23.10;63.30;;;;;;4795846;58;21574;-29
2022/10/12 08:04:01;;;;;;;53.60;47.83;;;23.20;63.30;;;;;;4816403;54;21067;-27
2022/10/12 08:09:03;;;;;;;50.58;45.17;;;23.20;63.30;;;;;;4795071;58;21134;-31
2022/10/12 08:14:04;;;;;;;54.78;47.80;;;23.20;63.50;;;;;;4813654;54;21020;-31
2022/10/12 08:19:05;;;;;;;53.92;47.13;;;23.20;63.80;;;;;;4799741;54;21040;-36
2022/10/12 08:24:07;;;;;;;51.55;46.00;;;23.30;64.00;;;;;;4814496;54;21000;-39
2022/10/12 08:29:09;;;;;;;52.53;46.08;;;23.30;64.10;;;;;;4854276;54;21048;-32
2022/10/12 08:34:12;;;;;;;54.22;48.38;;;23.30;64.10;;;;;;4803748;54;21035;-28
2022/10/12 08:39:12;;;;;;;55.33;49.08;;;23.40;64.40;;;;;;4807584;54;21048;-34
2022/10/12 08:45:01;;;;;;;52.92;47.13;;;23.40;64.30;;;;;;4795930;55;21000;-30
2022/10/12 08:50:06;;;;;;;52.58;46.92;;;23.50;64.70;;;;;;4795984;55;21119;-29
2022/10/12 08:57:08;;;;;;;56.28;49.17;;;23.50;64.70;;;;;;4804049;54;21003;-32
2022/10/12 09:04:39;;;;;;;53.63;47.78;;;23.50;64.70;;;;;;4811383;54;21000;-33
2022/10/12 09:13:26;;;;;;;56.53;50.40;;;23.50;64.90;;;;;;4812831;54;21601;-33
2022/10/12 09:18:47;;;;;;;62.10;52.20;;;23.50;64.80;;;;;;4794858;54;21525;-33
2022/10/12 09:23:48;;;;;;;58.50;52.08;;;23.50;64.70;;;;;;4792198;58;21008;-29
2022/10/12 09:28:56;;;;;;;54.08;48.20;;;23.50;64.60;;;;;;4801076;54;21051;-31
2022/10/12 09:33:59;;;;;;;61.67;51.08;;;23.50;64.50;;;;;;4829941;54;21044;-33
2022/10/12 09:39:04;;;;;;;57.72;51.37;;;23.50;64.50;;;;;;4802663;54;21024;-32
2022/10/12 09:44:10;;;;;;;56.00;49.92;;;23.50;64.60;;;;;;4821260;54;21099;-30
2022/10/12 09:49:11;;;;;;;58.95;50.40;;;23.50;64.80;;;;;;4801581;54;21095;-29
2022/10/12 09:54:21;;;;;;;56.45;49.88;;;23.60;64.90;;;;;;4834461;54;21036;-30
2022/10/12 09:59:56;;;;;;;60.60;50.47;;;23.60;65.00;;;;;;4795110;58;20996;-32
2022/10/12 10:05:21;;;;;;;59.80;51.60;;;23.60;65.00;;;;;;4795607;58;20992;-31
2022/10/12 10:10:24;;;;;;;58.45;50.83;;;23.70;65.20;;;;;;4832989;54;21446;-33
2022/10/12 10:15:29;;;;;;;57.03;49.70;;;23.70;65.20;;;;;;4795086;58;21072;-31
2022/10/12 10:20:49;;;;;;;55.78;49.58;;;23.70;65.40;;;;;;4824219;54;21004;-31
2022/10/12 10:26:09;;;;;;;59.83;51.75;;;23.70;65.40;;;;;;4795597;58;21184;-32
2022/10/12 10:31:21;;;;;;;60.05;51.30;;;23.70;65.40;;;;;;4801668;54;21003;-32
2022/10/12 10:36:25;;;;;;;59.97;53.00;;;23.70;65.50;;;;;;4821935;54;21384;-35
2022/10/12 10:41:33;;;;;;;57.35;50.88;;;23.70;65.50;;;;;;4806919;54;21016;-32
2022/10/12 10:46:36;;;;;;;60.08;50.88;;;23.70;65.70;;;;;;4805235;54;21534;-28
2022/10/12 10:51:49;;;;;;;63.08;52.65;;;23.80;65.90;;;;;;4793299;58;21071;-30
2022/10/12 10:58:01;;;;;;;57.75;51.53;;;23.70;65.70;;;;;;4839053;54;21513;-28
2022/10/12 11:03:19;;;;;;;62.17;53.58;;;23.70;65.70;;;;;;4864691;54;21134;-27
2022/10/12 11:08:26;;;;;;;62.15;54.38;;;23.70;65.80;;;;;;4800988;54;20995;-35
2022/10/12 11:13:41;;;;;;;61.55;52.47;;;23.70;65.70;;;;;;4793344;58;21007;-27
2022/10/12 11:18:52;;;;;;;67.18;56.13;;;23.70;65.00;;;;;;4794740;58;21502;-30
2022/10/12 11:24:15;;;;;;;68.47;58.53;;;23.70;65.00;;;;;;4805479;54;20980;-29
2022/10/12 11:29:16;;;;;;;71.40;60.40;;;23.60;64.60;;;;;;4803977;54;21040;-31
2022/10/12 11:34:21;;;;;;;74.57;59.80;;;23.70;64.50;;;;;;4813200;54;21028;-31
2022/10/12 11:39:37;;;;;;;71.78;59.60;;;23.60;64.10;;;;;;4809855;54;21095;-28
2022/10/12 11:44:46;;;;;;;67.57;57.93;;;23.60;63.90;;;;;;4809446;54;21055;-28
2022/10/12 11:49:59;;;;;;;74.90;60.33;;;23.60;63.90;;;;;;4824348;54;21007;-31
2022/10/12 11:55:25;;;;;;;64.62;56.33;;;23.60;63.70;;;;;;4795704;54;20996;-31
2022/10/12 12:03:15;;;;;;;69.45;59.00;;;23.60;63.60;;;;;;4807618;54;21008;-30
2022/10/12 12:08:58;;;;;;;74.35;60.00;;;23.60;63.50;;;;;;4805156;54;21103;-30
2022/10/12 12:14:43;;;;;;;69.72;56.78;;;23.60;63.30;;;;;;4830763;54;21044;-32
2022/10/12 12:19:52;;;;;;;65.37;54.97;;;23.60;63.20;;;;;;4806773;54;21035;-28
2022/10/12 12:25:15;;;;;;;70.20;56.33;;;23.60;63.20;;;;;;4802677;54;21043;-32
2022/10/12 12:31:55;;;;;;;65.18;55.60;;;23.60;63.00;;;;;;4915144;54;21114;-36
2022/10/12 12:36:57;;;;;;;67.55;56.85;;;23.60;63.00;;;;;;4815126;54;21574;-29
2022/10/12 12:42:03;;;;;;;63.92;53.83;;;23.60;62.90;;;;;;4816396;54;21486;-33
2022/10/12 12:47:37;;;;;;;62.20;52.67;;;23.60;62.70;;;;;;4808063;54;21000;-26
2022/10/12 12:52:39;;;;;;;64.53;54.20;;;23.60;62.50;;;;;;4795535;58;21076;-28
2022/10/12 13:00:57;;;;;;;64.60;54.17;;;23.70;62.60;;;;;;4820720;54;21599;-30
2022/10/12 13:09:17;;;;;;;65.50;52.25;;;23.60;62.40;;;;;;4796394;54;21103;-34
2022/10/12 13:14:45;;;;;;;68.00;55.80;;;23.60;62.20;;;;;;4818293;54;21087;-31
2022/10/12 13:19:46;;;;;;;68.28;53.47;;;23.70;62.10;;;;;;4804427;54;21071;-35
2022/10/12 13:24:54;;;;;;;66.53;53.30;;;23.70;62.00;;;;;;4804937;54;21016;-35
2022/10/12 13:30:46;;;;;;;67.35;54.28;;;23.70;62.00;;;;;;4815409;54;21060;-35
2022/10/12 13:36:20;;;;;;;68.47;54.30;;;23.60;58.90;;;;;;4799810;54;21072;-30
2022/10/12 13:41:21;;;;;;;71.90;55.05;;;23.50;58.40;;;;;;4794964;58;21035;-30
2022/10/12 13:49:55;;;;;;;69.10;55.97;;;23.50;58.00;;;;;;4794844;58;21024;-32
2022/10/12 13:54:57;;;;;;;81.57;63.85;;;23.40;57.80;;;;;;4795728;54;21517;-32
2022/10/12 14:00:40;;;;;;;85.60;67.20;;;23.40;57.70;;;;;;4803018;54;21621;-36
2022/10/12 14:05:45;;;;;;;117.65;85.75;;;23.40;57.50;;;;;;4795417;54;21170;-35
2022/10/12 14:10:48;;;;;;;112.97;82.45;;;23.40;57.70;;;;;;4804336;54;21796;-28
2022/10/12 14:15:49;;;;;;;114.68;81.63;;;23.30;57.30;;;;;;4818641;54;21529;-31
2022/10/12 14:20:50;;;;;;;96.53;73.97;;;23.30;57.30;;;;;;4801330;54;21076;-30
2022/10/12 14:25:57;;;;;;;99.43;71.90;;;23.30;57.90;;;;;;4816675;54;21004;-31
2022/10/12 14:30:58;;;;;;;87.47;68.53;;;23.30;57.80;;;;;;4814406;54;21112;-36
2022/10/12 14:36:24;;;;;;;92.22;66.15;;;23.50;58.10;;;;;;4813722;54;21035;-31
2022/10/12 14:41:50;;;;;;;90.30;65.75;;;23.30;58.20;;;;;;4820956;54;20992;-31
2022/10/12 14:47:22;;;;;;;81.57;62.58;;;23.30;58.30;;;;;;4805727;54;21478;-33
2022/10/12 14:52:42;;;;;;;77.62;62.60;;;23.30;58.50;;;;;;4816907;54;21051;-35
2022/10/12 14:57:43;;;;;;;77.18;59.95;;;23.30;58.60;;;;;;4830454;54;21015;-35
2022/10/12 15:02:44;;;;;;;72.87;60.38;;;23.30;58.80;;;;;;4798391;54;21085;-31
2022/10/12 15:07:46;;;;;;;71.78;57.45;;;23.20;58.80;;;;;;4795430;58;21411;-32
2022/10/12 15:12:47;;;;;;;73.30;57.38;;;23.20;59.50;;;;;;4801355;54;21521;-34
2022/10/12 15:17:48;;;;;;;71.43;56.65;;;23.20;59.10;;;;;;4793542;58;21059;-36
2022/10/12 15:22:49;;;;;;;69.82;57.03;;;23.20;59.10;;;;;;4819970;54;21090;-32
2022/10/12 15:27:50;;;;;;;71.32;56.00;;;23.20;59.20;;;;;;4795109;58;20996;-29
2022/10/12 15:32:51;;;;;;;69.28;56.42;;;23.20;59.30;;;;;;4794893;58;21019;-29
2022/10/12 15:37:56;;;;;;;70.20;57.45;;;23.20;59.40;;;;;;4805418;54;21035;-31
2022/10/12 15:42:57;;;;;;;70.65;56.88;;;23.20;59.40;;;;;;4804753;54;21474;-27
2022/10/12 15:47:58;;;;;;;73.60;57.47;;;23.20;59.50;;;;;;4830762;54;21052;-28
2022/10/12 15:52:59;;;;;;;66.90;54.88;;;23.20;59.60;;;;;;4817702;54;21539;-36
2022/10/12 15:58:03;;;;;;;65.93;55.15;;;23.20;59.70;;;;;;4798928;54;21133;-27
2022/10/12 16:03:04;;;;;;;64.20;54.00;;;23.20;59.70;;;;;;4801258;54;21003;-28
2022/10/12 16:08:05;;;;;;;63.03;54.20;;;23.20;59.80;;;;;;4827197;54;21526;-29
2022/10/12 16:13:09;;;;;;;65.00;55.38;;;23.20;59.80;;;;;;4795780;54;21024;-36
2022/10/12 16:18:10;;;;;;;69.50;55.30;;;23.20;59.90;;;;;;4795373;54;21036;-29
2022/10/12 16:23:16;;;;;;;67.05;53.97;;;23.20;59.90;;;;;;4795847;58;21059;-33
2022/10/12 16:28:17;;;;;;;63.55;52.70;;;23.20;59.90;;;;;;4823318;54;21020;-32
2022/10/12 16:33:18;;;;;;;63.65;53.33;;;23.20;60.00;;;;;;4826954;54;21000;-29
2022/10/12 16:38:19;;;;;;;64.70;54.92;;;23.20;60.00;;;;;;4795145;55;21103;-33
2022/10/12 16:43:20;;;;;;;61.35;53.50;;;23.20;60.00;;;;;;4837473;54;21632;-32
2022/10/12 16:48:20;;;;;;;61.22;52.35;;;23.20;60.00;;;;;;4813931;54;21039;-32
2022/10/12 16:53:21;;;;;;;61.78;52.38;;;23.20;60.20;;;;;;4863547;54;21008;-34
2022/10/12 16:58:22;;;;;;;61.22;53.28;;;23.30;60.20;;;;;;4809073;54;21067;-31
2022/10/12 17:03:23;;;;;;;62.97;51.08;;;23.20;60.20;;;;;;4794678;58;21324;-36
2022/10/12 17:08:24;;;;;;;63.92;52.17;;;23.20;60.20;;;;;;4825329;54;21633;-29
2022/10/12 17:13:25;;;;;;;60.67;51.30;;;23.20;60.20;;;;;;4801775;54;21020;-31
2022/10/12 17:18:26;;;;;;;61.90;51.75;;;23.20;60.30;;;;;;4808007;54;21581;-33
2022/10/12 17:23:28;;;;;;;60.00;50.97;;;23.20;60.40;;;;;;4800150;54;21035;-31
2022/10/12 17:28:28;;;;;;;59.42;50.85;;;23.20;60.40;;;;;;4809698;54;21572;-30
2022/10/12 17:33:30;;;;;;;61.92;52.22;;;23.20;60.40;;;;;;4832423;54;21079;-37
2022/10/12 17:38:32;;;;;;;58.87;51.45;;;23.20;60.40;;;;;;4798993;54;21106;-34
2022/10/12 17:43:33;;;;;;;57.13;50.45;;;23.10;60.40;;;;;;4808943;54;21091;-38
2022/10/12 17:48:34;;;;;;;65.37;53.53;;;23.20;60.50;;;;;;4832235;54;21000;-30
2022/10/12 17:53:35;;;;;;;58.47;50.78;;;23.20;60.50;;;;;;4863188;54;21486;-36
2022/10/12 17:58:36;;;;;;;58.63;51.13;;;23.10;60.50;;;;;;4832310;54;21978;-29
2022/10/12 18:03:40;;;;;;;60.53;51.37;;;23.20;60.60;;;;;;4811341;54;21012;-28
2022/10/12 18:08:41;;;;;;;61.17;52.20;;;23.20;60.60;;;;;;4820604;54;21593;-29
2022/10/12 18:13:47;;;;;;;62.22;53.92;;;23.30;60.70;;;;;;4810126;54;21498;-35
2022/10/12 18:18:52;;;;;;;61.88;51.95;;;23.20;60.70;;;;;;4815965;54;21067;-33
2022/10/12 18:23:53;;;;;;;58.35;51.25;;;23.10;60.70;;;;;;4843971;54;22280;-30
2022/10/12 18:28:57;;;;;;;62.78;51.53;;;23.10;60.70;;;;;;4798082;54;20996;-28
2022/10/12 18:33:57;;;;;;;59.00;51.08;;;23.10;60.70;;;;;;4798332;54;21052;-30
2022/10/12 18:39:00;;;;;;;62.30;53.28;;;23.20;60.80;;;;;;4810341;54;21724;-31
2022/10/12 18:44:02;;;;;;;61.50;51.60;;;23.10;60.80;;;;;;4812693;54;21517;-39
2022/10/12 18:49:06;;;;;;;58.75;51.20;;;23.10;60.80;;;;;;4795220;58;21493;-31
2022/10/12 18:54:11;;;;;;;60.08;52.35;;;23.10;60.80;;;;;;4819336;54;21510;-31
2022/10/12 18:59:16;;;;;;;61.10;51.67;;;23.10;60.80;;;;;;4799535;54;21489;-37
2022/10/12 19:04:17;;;;;;;56.58;50.25;;;23.10;60.90;;;;;;4802676;54;21513;-30
2022/10/12 19:09:18;;;;;;;59.80;50.70;;;23.10;61.00;;;;;;4819367;54;21514;-28
2022/10/12 19:14:20;;;;;;;56.92;50.03;;;23.10;61.00;;;;;;4795031;58;21056;-27
2022/10/12 19:19:21;;;;;;;59.10;50.22;;;23.10;61.00;;;;;;4800469;54;21019;-33
2022/10/12 19:24:22;;;;;;;60.85;50.80;;;23.10;61.00;;;;;;4805786;54;21011;-35
2022/10/12 19:29:23;;;;;;;57.28;49.67;;;23.20;61.10;;;;;;4821473;54;21060;-30
2022/10/12 19:34:24;;;;;;;56.85;48.60;;;23.10;61.00;;;;;;4839676;54;21008;-26
2022/10/12 19:39:26;;;;;;;60.92;49.53;;;23.10;61.00;;;;;;4818198;54;21514;-26
2022/10/12 19:44:27;;;;;;;59.47;49.92;;;23.10;61.10;;;;;;4898543;54;21078;-30
2022/10/12 19:49:30;;;;;;;59.28;51.15;;;23.10;61.10;;;;;;4832228;54;21012;-28
2022/10/12 19:54:31;;;;;;;60.40;49.67;;;23.10;61.10;;;;;;4842925;54;21019;-34
2022/10/12 19:59:32;;;;;;;56.97;50.20;;;23.10;61.10;;;;;;4814782;54;21004;-29
2022/10/12 20:04:33;;;;;;;57.78;50.10;;;23.10;61.10;;;;;;4841612;54;21470;-36
2022/10/12 20:09:33;;;;;;;57.42;48.90;;;23.10;61.10;;;;;;4795165;58;21067;-32
2022/10/12 20:14:34;;;;;;;57.22;48.97;;;23.10;61.10;;;;;;4853756;54;21036;-36
2022/10/12 20:19:36;;;;;;;58.30;49.90;;;23.10;61.10;;;;;;4810567;54;21089;-34
2022/10/12 20:24:36;;;;;;;58.50;50.75;;;23.10;61.20;;;;;;4795463;58;21007;-33
2022/10/12 20:29:37;;;;;;;55.30;48.72;;;23.10;61.10;;;;;;4795828;58;21024;-36
2022/10/12 20:34:38;;;;;;;57.75;49.03;;;23.10;61.20;;;;;;4861170;54;21019;-36
2022/10/12 20:39:39;;;;;;;57.40;48.42;;;23.10;61.20;;;;;;4839838;54;21051;-27
2022/10/12 20:44:40;;;;;;;53.87;47.62;;;23.10;61.20;;;;;;4806593;54;21032;-31
2022/10/12 20:49:40;;;;;;;52.05;46.25;;;23.10;61.20;;;;;;4822028;54;21040;-33
2022/10/12 20:54:51;;;;;;;54.03;47.60;;;23.10;61.30;;;;;;4802669;54;21003;-28
2022/10/12 20:59:52;;;;;;;53.15;45.60;;;23.10;61.20;;;;;;4804854;54;21489;-31
2022/10/12 21:04:52;;;;;;;54.30;47.35;;;23.00;61.30;;;;;;4795793;58;21008;-35
2022/10/12 21:09:53;;;;;;;54.45;45.50;;;23.00;61.20;;;;;;4795724;55;21000;-33
2022/10/12 21:14:54;;;;;;;54.30;46.65;;;23.00;61.20;;;;;;4827266;54;21101;-38
2022/10/12 21:19:55;;;;;;;51.50;45.90;;;23.00;61.20;;;;;;4815808;54;21024;-29
2022/10/12 21:24:56;;;;;;;55.08;46.42;;;23.00;61.20;;;;;;4852694;54;21004;-29
2022/10/12 21:29:56;;;;;;;51.53;45.42;;;23.00;61.10;;;;;;4807811;54;21016;-32
2022/10/12 21:34:57;;;;;;;51.20;45.55;;;23.00;61.20;;;;;;4807257;54;21016;-33
2022/10/12 21:39:58;;;;;;;50.85;45.22;;;23.00;61.10;;;;;;4797234;54;21072;-38
2022/10/12 21:44:59;;;;;;;47.97;42.30;;;23.00;61.10;;;;;;4812619;54;21060;-30
2022/10/12 21:49:59;;;;;;;49.17;43.33;;;23.00;61.10;;;;;;4801390;54;21063;-33
2022/10/12 21:55:01;;;;;;;53.20;45.58;;;23.00;61.10;;;;;;4832376;54;21521;-31
2022/10/12 22:00:02;;;;;;;51.40;45.67;;;23.00;61.10;;;;;;4836082;54;21055;-28
2022/10/12 22:05:03;;;;;;;48.17;42.70;;;23.00;61.10;;;;;;4927962;54;20988;-27
2022/10/12 22:10:08;;;;;;;48.10;42.83;;;23.00;61.80;;;;;;4795743;54;21071;-31
2022/10/12 22:15:11;;;;;;;51.00;42.90;;;23.00;61.10;;;;;;4828542;54;21039;-30
2022/10/12 22:20:11;;;;;;;47.92;42.42;;;23.00;61.10;;;;;;4825499;54;21007;-36
2022/10/12 22:25:12;;;;;;;50.53;44.08;;;23.00;61.20;;;;;;4811217;54;21004;-38
2022/10/12 22:30:13;;;;;;;49.13;42.60;;;23.00;61.10;;;;;;4823993;54;21016;-27
2022/10/12 22:35:14;;;;;;;48.47;42.13;;;23.00;61.10;;;;;;4794692;58;21040;-35
2022/10/12 22:40:15;;;;;;;47.47;41.70;;;23.00;61.10;;;;;;4795657;58;21465;-37
2022/10/12 22:45:15;;;;;;;47.05;41.42;;;23.00;61.10;;;;;;4796132;54;21005;-28
2022/10/12 22:50:16;;;;;;;47.22;40.42;;;23.00;61.10;;;;;;4821817;54;21016;-34
2022/10/12 22:55:17;;;;;;;46.28;41.22;;;23.00;61.20;;;;;;4798862;54;21004;-36
2022/10/12 23:00:18;;;;;;;48.13;42.55;;;23.00;61.20;;;;;;4804455;54;21059;-38
2022/10/12 23:05:19;;;;;;;45.55;40.63;;;23.00;61.20;;;;;;4801888;54;21393;-29
2022/10/12 23:10:20;;;;;;;45.22;39.72;;;23.00;61.10;;;;;;4802653;54;21012;-36
2022/10/12 23:15:21;;;;;;;45.67;39.78;;;23.00;61.10;;;;;;4831718;54;21059;-27
2022/10/12 23:20:22;;;;;;;45.75;39.10;;;23.00;61.20;;;;;;4795509;58;21023;-33
2022/10/12 23:25:23;;;;;;;48.00;40.25;;;23.00;61.10;;;;;;4808073;54;21057;-33
2022/10/12 23:30:24;;;;;;;45.30;40.45;;;23.00;61.10;;;;;;4830916;54;21075;-38
2022/10/12 23:35:24;;;;;;;45.80;40.45;;;23.00;61.20;;;;;;4795386;58;21035;-32
2022/10/12 23:40:25;;;;;;;46.00;40.97;;;23.00;61.20;;;;;;4800628;54;21009;-31
2022/10/12 23:45:26;;;;;;;46.45;39.53;;;23.00;61.20;;;;;;4815348;54;21060;-38
2022/10/12 23:50:27;;;;;;;45.08;39.60;;;23.00;61.20;;;;;;4835602;54;21487;-29
2022/10/12 23:55:27;;;;;;;44.40;39.45;;;23.00;61.20;;;;;;4795435;58;21510;-36
